sensor_id;sensor_type;location;lat;lon;timestamp;pressure;altitude;pressure_sealevel;temperature
64960;BMP180;51487;52.266;10.542;2022-08-02T00:00:12;100944.00;;;15.20
64960;BMP180;51487;52.266;10.542;2022-08-02T00:02:43;100949.00;;;15.10
64960;BMP180;51487;52.266;10.542;2022-08-02T00:05:11;100950.00;;;15.20
64960;BMP180;51487;52.266;10.542;2022-08-02T00:07:38;100952.00;;;15.00
64960;BMP180;51487;52.266;10.542;2022-08-02T00:10:05;100949.00;;;15.00
64960;BMP180;51487;52.266;10.542;2022-08-02T00:12:31;100948.00;;;15.00
64960;BMP180;51487;52.266;10.542;2022-08-02T00:14:57;100948.00;;;15.10
64960;BMP180;51487;52.266;10.542;2022-08-02T00:17:23;100950.00;;;15.10
64960;BMP180;51487;52.266;10.542;2022-08-02T00:19:49;100948.00;;;15.00
64960;BMP180;51487;52.266;10.542;2022-08-02T00:22:14;100951.00;;;15.00
64960;BMP180;51487;52.266;10.542;2022-08-02T00:24:40;100949.00;;;15.00
64960;BMP180;51487;52.266;10.542;2022-08-02T00:27:06;100947.00;;;15.00
64960;BMP180;51487;52.266;10.542;2022-08-02T00:29:35;100950.00;;;15.10
64960;BMP180;51487;52.266;10.542;2022-08-02T00:32:01;100943.00;;;15.00
64960;BMP180;51487;52.266;10.542;2022-08-02T00:34:27;100945.00;;;15.00
64960;BMP180;51487;52.266;10.542;2022-08-02T00:36:52;100940.00;;;15.00
64960;BMP180;51487;52.266;10.542;2022-08-02T00:39:18;100935.00;;;15.00
64960;BMP180;51487;52.266;10.542;2022-08-02T00:41:49;100946.00;;;15.00
64960;BMP180;51487;52.266;10.542;2022-08-02T00:44:18;100939.00;;;15.00
64960;BMP180;51487;52.266;10.542;2022-08-02T00:46:45;100940.00;;;14.90
64960;BMP180;51487;52.266;10.542;2022-08-02T00:49:12;100939.00;;;14.90
64960;BMP180;51487;52.266;10.542;2022-08-02T00:51:39;100941.00;;;14.90
64960;BMP180;51487;52.266;10.542;2022-08-02T00:54:05;100947.00;;;14.90
64960;BMP180;51487;52.266;10.542;2022-08-02T00:56:31;100946.00;;;14.90
64960;BMP180;51487;52.266;10.542;2022-08-02T00:58:57;100949.00;;;14.90
64960;BMP180;51487;52.266;10.542;2022-08-02T01:01:23;100956.00;;;14.70
64960;BMP180;51487;52.266;10.542;2022-08-02T01:04:04;100956.00;;;14.70
64960;BMP180;51487;52.266;10.542;2022-08-02T01:06:31;100947.00;;;14.70
64960;BMP180;51487;52.266;10.542;2022-08-02T01:08:58;100954.00;;;14.70
64960;BMP180;51487;52.266;10.542;2022-08-02T01:11:25;100962.00;;;14.60
64960;BMP180;51487;52.266;10.542;2022-08-02T01:13:51;100958.00;;;14.60
64960;BMP180;51487;52.266;10.542;2022-08-02T01:16:19;100952.00;;;14.50
64960;BMP180;51487;52.266;10.542;2022-08-02T01:18:53;100961.00;;;14.50
64960;BMP180;51487;52.266;10.542;2022-08-02T01:21:53;100966.00;;;14.40
64960;BMP180;51487;52.266;10.542;2022-08-02T01:30:37;100958.00;;;14.50
64960;BMP180;51487;52.266;10.542;2022-08-02T01:33:07;100958.00;;;14.50
64960;BMP180;51487;52.266;10.542;2022-08-02T01:35:43;100956.00;;;14.50
64960;BMP180;51487;52.266;10.542;2022-08-02T01:38:17;100955.00;;;14.50
64960;BMP180;51487;52.266;10.542;2022-08-02T01:40:50;100958.00;;;14.40
64960;BMP180;51487;52.266;10.542;2022-08-02T01:43:19;100952.00;;;14.40
64960;BMP180;51487;52.266;10.542;2022-08-02T01:45:47;100947.00;;;14.40
64960;BMP180;51487;52.266;10.542;2022-08-02T01:48:14;100941.00;;;14.50
64960;BMP180;51487;52.266;10.542;2022-08-02T01:50:42;100940.00;;;14.50
64960;BMP180;51487;52.266;10.542;2022-08-02T01:53:11;100943.00;;;14.50
64960;BMP180;51487;52.266;10.542;2022-08-02T01:56:04;100937.00;;;14.50
64960;BMP180;51487;52.266;10.542;2022-08-02T01:58:35;100946.00;;;14.40
64960;BMP180;51487;52.266;10.542;2022-08-02T02:01:04;100943.00;;;14.30
64960;BMP180;51487;52.266;10.542;2022-08-02T02:03:33;100941.00;;;14.40
64960;BMP180;51487;52.266;10.542;2022-08-02T02:06:02;100937.00;;;14.30
64960;BMP180;51487;52.266;10.542;2022-08-02T02:08:37;100938.00;;;14.30
64960;BMP180;51487;52.266;10.542;2022-08-02T02:11:06;100944.00;;;14.30
64960;BMP180;51487;52.266;10.542;2022-08-02T02:13:33;100946.00;;;14.30
64960;BMP180;51487;52.266;10.542;2022-08-02T02:16:03;100943.00;;;14.20
64960;BMP180;51487;52.266;10.542;2022-08-02T02:18:31;100937.00;;;14.10
64960;BMP180;51487;52.266;10.542;2022-08-02T02:21:03;100936.00;;;14.10
64960;BMP180;51487;52.266;10.542;2022-08-02T02:23:28;100938.00;;;14.10
64960;BMP180;51487;52.266;10.542;2022-08-02T02:25:54;100945.00;;;14.00
64960;BMP180;51487;52.266;10.542;2022-08-02T02:28:24;100948.00;;;14.10
64960;BMP180;51487;52.266;10.542;2022-08-02T02:31:06;100944.00;;;14.10
64960;BMP180;51487;52.266;10.542;2022-08-02T02:33:54;100938.00;;;14.00
64960;BMP180;51487;52.266;10.542;2022-08-02T02:36:23;100937.00;;;13.90
64960;BMP180;51487;52.266;10.542;2022-08-02T02:38:50;100941.00;;;13.80
64960;BMP180;51487;52.266;10.542;2022-08-02T02:41:19;100946.00;;;13.80
64960;BMP180;51487;52.266;10.542;2022-08-02T02:43:46;100943.00;;;13.80
64960;BMP180;51487;52.266;10.542;2022-08-02T02:46:13;100939.00;;;13.80
64960;BMP180;51487;52.266;10.542;2022-08-02T02:48:41;100936.00;;;13.80
64960;BMP180;51487;52.266;10.542;2022-08-02T02:51:09;100936.00;;;13.70
64960;BMP180;51487;52.266;10.542;2022-08-02T02:53:36;100942.00;;;13.80
64960;BMP180;51487;52.266;10.542;2022-08-02T02:56:02;100935.00;;;13.70
64960;BMP180;51487;52.266;10.542;2022-08-02T02:58:30;100935.00;;;13.60
64960;BMP180;51487;52.266;10.542;2022-08-02T03:00:56;100933.00;;;13.50
64960;BMP180;51487;52.266;10.542;2022-08-02T03:03:42;100930.00;;;13.50
64960;BMP180;51487;52.266;10.542;2022-08-02T03:06:09;100936.00;;;13.50
64960;BMP180;51487;52.266;10.542;2022-08-02T03:08:35;100932.00;;;13.50
64960;BMP180;51487;52.266;10.542;2022-08-02T03:11:00;100926.00;;;13.40
64960;BMP180;51487;52.266;10.542;2022-08-02T03:13:26;100928.00;;;13.30
64960;BMP180;51487;52.266;10.542;2022-08-02T03:15:53;100930.00;;;13.30
64960;BMP180;51487;52.266;10.542;2022-08-02T03:18:32;100932.00;;;13.30
64960;BMP180;51487;52.266;10.542;2022-08-02T03:21:00;100935.00;;;13.30
64960;BMP180;51487;52.266;10.542;2022-08-02T03:23:27;100930.00;;;13.30
64960;BMP180;51487;52.266;10.542;2022-08-02T03:25:53;100930.00;;;13.20
64960;BMP180;51487;52.266;10.542;2022-08-02T03:28:19;100930.00;;;13.20
64960;BMP180;51487;52.266;10.542;2022-08-02T03:30:44;100936.00;;;13.20
64960;BMP180;51487;52.266;10.542;2022-08-02T03:33:10;100938.00;;;13.20
64960;BMP180;51487;52.266;10.542;2022-08-02T03:35:36;100936.00;;;13.30
64960;BMP180;51487;52.266;10.542;2022-08-02T03:38:04;100929.00;;;13.30
64960;BMP180;51487;52.266;10.542;2022-08-02T03:40:31;100928.00;;;13.30
64960;BMP180;51487;52.266;10.542;2022-08-02T03:42:58;100924.00;;;13.20
64960;BMP180;51487;52.266;10.542;2022-08-02T03:45:25;100922.00;;;13.20
64960;BMP180;51487;52.266;10.542;2022-08-02T03:47:52;100927.00;;;13.20
64960;BMP180;51487;52.266;10.542;2022-08-02T03:50:18;100925.00;;;13.20
64960;BMP180;51487;52.266;10.542;2022-08-02T03:52:47;100926.00;;;13.20
64960;BMP180;51487;52.266;10.542;2022-08-02T03:55:13;100928.00;;;13.30
64960;BMP180;51487;52.266;10.542;2022-08-02T03:57:41;100915.00;;;13.40
64960;BMP180;51487;52.266;10.542;2022-08-02T04:00:09;100924.00;;;13.30
64960;BMP180;51487;52.266;10.542;2022-08-02T04:02:37;100928.00;;;13.30
64960;BMP180;51487;52.266;10.542;2022-08-02T04:05:03;100924.00;;;13.30
64960;BMP180;51487;52.266;10.542;2022-08-02T04:07:28;100931.00;;;13.40
64960;BMP180;51487;52.266;10.542;2022-08-02T04:09:54;100935.00;;;13.40
64960;BMP180;51487;52.266;10.542;2022-08-02T04:12:19;100929.00;;;13.40
64960;BMP180;51487;52.266;10.542;2022-08-02T04:14:45;100930.00;;;13.50
64960;BMP180;51487;52.266;10.542;2022-08-02T04:17:12;100933.00;;;13.60
64960;BMP180;51487;52.266;10.542;2022-08-02T04:19:43;100943.00;;;13.50
64960;BMP180;51487;52.266;10.542;2022-08-02T04:22:29;100932.00;;;13.60
64960;BMP180;51487;52.266;10.542;2022-08-02T04:25:02;100933.00;;;13.60
64960;BMP180;51487;52.266;10.542;2022-08-02T04:27:31;100939.00;;;13.70
64960;BMP180;51487;52.266;10.542;2022-08-02T04:29:57;100933.00;;;13.70
64960;BMP180;51487;52.266;10.542;2022-08-02T04:32:24;100941.00;;;13.70
64960;BMP180;51487;52.266;10.542;2022-08-02T04:34:51;100945.00;;;13.70
64960;BMP180;51487;52.266;10.542;2022-08-02T04:37:18;100945.00;;;13.70
64960;BMP180;51487;52.266;10.542;2022-08-02T04:39:43;100947.00;;;13.70
64960;BMP180;51487;52.266;10.542;2022-08-02T04:42:09;100941.00;;;13.80
64960;BMP180;51487;52.266;10.542;2022-08-02T04:44:35;100945.00;;;13.80
64960;BMP180;51487;52.266;10.542;2022-08-02T04:47:01;100948.00;;;13.80
64960;BMP180;51487;52.266;10.542;2022-08-02T04:49:29;100952.00;;;13.80
64960;BMP180;51487;52.266;10.542;2022-08-02T04:51:56;100952.00;;;13.80
64960;BMP180;51487;52.266;10.542;2022-08-02T04:54:22;100948.00;;;13.80
64960;BMP180;51487;52.266;10.542;2022-08-02T04:56:50;100948.00;;;13.80
64960;BMP180;51487;52.266;10.542;2022-08-02T04:59:15;100961.00;;;13.80
64960;BMP180;51487;52.266;10.542;2022-08-02T05:01:41;100955.00;;;13.90
64960;BMP180;51487;52.266;10.542;2022-08-02T05:04:07;100953.00;;;13.90
64960;BMP180;51487;52.266;10.542;2022-08-02T05:06:32;100955.00;;;14.00
64960;BMP180;51487;52.266;10.542;2022-08-02T05:08:58;100947.00;;;14.10
64960;BMP180;51487;52.266;10.542;2022-08-02T05:11:24;100946.00;;;14.10
64960;BMP180;51487;52.266;10.542;2022-08-02T05:13:50;100934.00;;;14.10
64960;BMP180;51487;52.266;10.542;2022-08-02T05:16:15;100922.00;;;14.30
64960;BMP180;51487;52.266;10.542;2022-08-02T05:18:41;100927.00;;;14.40
64960;BMP180;51487;52.266;10.542;2022-08-02T05:21:07;100917.00;;;14.60
64960;BMP180;51487;52.266;10.542;2022-08-02T05:23:33;100926.00;;;14.70
64960;BMP180;51487;52.266;10.542;2022-08-02T05:25:58;100928.00;;;14.80
64960;BMP180;51487;52.266;10.542;2022-08-02T05:28:24;100934.00;;;14.90
64960;BMP180;51487;52.266;10.542;2022-08-02T05:30:50;100933.00;;;15.00
64960;BMP180;51487;52.266;10.542;2022-08-02T05:33:16;100933.00;;;15.00
64960;BMP180;51487;52.266;10.542;2022-08-02T05:35:42;100937.00;;;15.00
64960;BMP180;51487;52.266;10.542;2022-08-02T05:38:08;100944.00;;;15.00
64960;BMP180;51487;52.266;10.542;2022-08-02T05:40:33;100944.00;;;14.80
64960;BMP180;51487;52.266;10.542;2022-08-02T05:42:59;100946.00;;;14.80
64960;BMP180;51487;52.266;10.542;2022-08-02T05:45:25;100945.00;;;14.90
64960;BMP180;51487;52.266;10.542;2022-08-02T05:47:51;100949.00;;;14.80
64960;BMP180;51487;52.266;10.542;2022-08-02T05:50:16;100950.00;;;14.80
64960;BMP180;51487;52.266;10.542;2022-08-02T05:52:51;100951.00;;;14.80
64960;BMP180;51487;52.266;10.542;2022-08-02T05:55:26;100954.00;;;14.80
64960;BMP180;51487;52.266;10.542;2022-08-02T06:00:47;100957.00;;;14.90
64960;BMP180;51487;52.266;10.542;2022-08-02T06:03:38;100959.00;;;15.00
64960;BMP180;51487;52.266;10.542;2022-08-02T06:06:14;100954.00;;;15.00
64960;BMP180;51487;52.266;10.542;2022-08-02T06:09:22;100956.00;;;15.10
64960;BMP180;51487;52.266;10.542;2022-08-02T06:11:50;100959.00;;;15.20
64960;BMP180;51487;52.266;10.542;2022-08-02T06:14:18;100948.00;;;15.30
64960;BMP180;51487;52.266;10.542;2022-08-02T06:16:44;100956.00;;;15.30
64960;BMP180;51487;52.266;10.542;2022-08-02T06:19:11;100961.00;;;15.50
64960;BMP180;51487;52.266;10.542;2022-08-02T06:21:41;100964.00;;;15.50
64960;BMP180;51487;52.266;10.542;2022-08-02T06:24:08;100957.00;;;15.50
64960;BMP180;51487;52.266;10.542;2022-08-02T06:26:35;100955.00;;;15.60
64960;BMP180;51487;52.266;10.542;2022-08-02T06:29:02;100957.00;;;15.70
64960;BMP180;51487;52.266;10.542;2022-08-02T06:31:28;100951.00;;;15.70
64960;BMP180;51487;52.266;10.542;2022-08-02T06:33:55;100957.00;;;15.80
64960;BMP180;51487;52.266;10.542;2022-08-02T06:36:29;100957.00;;;15.90
64960;BMP180;51487;52.266;10.542;2022-08-02T06:39:09;100950.00;;;15.90
64960;BMP180;51487;52.266;10.542;2022-08-02T06:41:43;100958.00;;;15.90
64960;BMP180;51487;52.266;10.542;2022-08-02T06:44:09;100954.00;;;16.00
64960;BMP180;51487;52.266;10.542;2022-08-02T06:46:35;100948.00;;;16.10
64960;BMP180;51487;52.266;10.542;2022-08-02T06:49:02;100946.00;;;16.10
64960;BMP180;51487;52.266;10.542;2022-08-02T06:51:28;100947.00;;;16.30
64960;BMP180;51487;52.266;10.542;2022-08-02T06:53:54;100946.00;;;16.40
64960;BMP180;51487;52.266;10.542;2022-08-02T06:56:20;100950.00;;;16.60
64960;BMP180;51487;52.266;10.542;2022-08-02T06:58:46;100946.00;;;16.80
64960;BMP180;51487;52.266;10.542;2022-08-02T07:01:12;100952.00;;;17.00
64960;BMP180;51487;52.266;10.542;2022-08-02T07:03:39;100948.00;;;17.10
64960;BMP180;51487;52.266;10.542;2022-08-02T07:06:06;100938.00;;;17.30
64960;BMP180;51487;52.266;10.542;2022-08-02T07:08:36;100942.00;;;17.50
64960;BMP180;51487;52.266;10.542;2022-08-02T07:11:08;100944.00;;;17.70
64960;BMP180;51487;52.266;10.542;2022-08-02T07:13:34;100946.00;;;17.80
64960;BMP180;51487;52.266;10.542;2022-08-02T07:16:01;100949.00;;;17.90
64960;BMP180;51487;52.266;10.542;2022-08-02T07:18:27;100948.00;;;17.90
64960;BMP180;51487;52.266;10.542;2022-08-02T07:20:53;100950.00;;;17.80
64960;BMP180;51487;52.266;10.542;2022-08-02T07:23:19;100956.00;;;17.80
64960;BMP180;51487;52.266;10.542;2022-08-02T07:25:46;100952.00;;;17.70
64960;BMP180;51487;52.266;10.542;2022-08-02T07:28:12;100951.00;;;17.80
64960;BMP180;51487;52.266;10.542;2022-08-02T07:30:40;100945.00;;;17.80
64960;BMP180;51487;52.266;10.542;2022-08-02T07:33:06;100943.00;;;17.90
64960;BMP180;51487;52.266;10.542;2022-08-02T07:35:32;100943.00;;;17.90
64960;BMP180;51487;52.266;10.542;2022-08-02T07:37:58;100938.00;;;17.90
64960;BMP180;51487;52.266;10.542;2022-08-02T07:40:23;100934.00;;;17.90
64960;BMP180;51487;52.266;10.542;2022-08-02T07:42:53;100921.00;;;18.00
64960;BMP180;51487;52.266;10.542;2022-08-02T07:45:21;100913.00;;;18.00
64960;BMP180;51487;52.266;10.542;2022-08-02T07:47:47;100915.00;;;18.00
64960;BMP180;51487;52.266;10.542;2022-08-02T07:50:15;100903.00;;;18.10
64960;BMP180;51487;52.266;10.542;2022-08-02T07:52:42;100903.00;;;18.10
64960;BMP180;51487;52.266;10.542;2022-08-02T07:55:09;100906.00;;;18.20
64960;BMP180;51487;52.266;10.542;2022-08-02T07:57:37;100895.00;;;18.30
64960;BMP180;51487;52.266;10.542;2022-08-02T08:00:05;100896.00;;;18.30
64960;BMP180;51487;52.266;10.542;2022-08-02T08:02:32;100891.00;;;18.40
64960;BMP180;51487;52.266;10.542;2022-08-02T08:04:57;100886.00;;;18.50
64960;BMP180;51487;52.266;10.542;2022-08-02T08:07:23;100894.00;;;18.50
64960;BMP180;51487;52.266;10.542;2022-08-02T08:09:49;100896.00;;;18.50
64960;BMP180;51487;52.266;10.542;2022-08-02T08:12:15;100901.00;;;18.60
64960;BMP180;51487;52.266;10.542;2022-08-02T08:14:42;100905.00;;;18.70
64960;BMP180;51487;52.266;10.542;2022-08-02T08:17:08;100901.00;;;18.80
64960;BMP180;51487;52.266;10.542;2022-08-02T08:19:34;100904.00;;;18.90
64960;BMP180;51487;52.266;10.542;2022-08-02T08:22:00;100906.00;;;19.00
64960;BMP180;51487;52.266;10.542;2022-08-02T08:24:26;100905.00;;;19.10
64960;BMP180;51487;52.266;10.542;2022-08-02T08:26:52;100898.00;;;19.20
64960;BMP180;51487;52.266;10.542;2022-08-02T08:29:18;100904.00;;;19.30
64960;BMP180;51487;52.266;10.542;2022-08-02T08:31:44;100911.00;;;19.40
64960;BMP180;51487;52.266;10.542;2022-08-02T08:34:09;100908.00;;;19.40
64960;BMP180;51487;52.266;10.542;2022-08-02T08:36:35;100902.00;;;19.50
64960;BMP180;51487;52.266;10.542;2022-08-02T08:39:02;100904.00;;;19.60
64960;BMP180;51487;52.266;10.542;2022-08-02T08:41:28;100910.00;;;19.60
64960;BMP180;51487;52.266;10.542;2022-08-02T08:43:54;100906.00;;;19.80
64960;BMP180;51487;52.266;10.542;2022-08-02T08:46:31;100897.00;;;19.80
64960;BMP180;51487;52.266;10.542;2022-08-02T08:49:22;100900.00;;;19.80
64960;BMP180;51487;52.266;10.542;2022-08-02T08:51:53;100892.00;;;19.80
64960;BMP180;51487;52.266;10.542;2022-08-02T08:54:23;100887.00;;;20.00
64960;BMP180;51487;52.266;10.542;2022-08-02T08:56:53;100883.00;;;20.00
64960;BMP180;51487;52.266;10.542;2022-08-02T08:59:19;100874.00;;;20.00
64960;BMP180;51487;52.266;10.542;2022-08-02T09:01:46;100883.00;;;20.10
64960;BMP180;51487;52.266;10.542;2022-08-02T09:04:13;100880.00;;;20.20
64960;BMP180;51487;52.266;10.542;2022-08-02T09:06:39;100880.00;;;20.40
64960;BMP180;51487;52.266;10.542;2022-08-02T09:09:04;100872.00;;;20.50
64960;BMP180;51487;52.266;10.542;2022-08-02T09:11:30;100877.00;;;20.70
64960;BMP180;51487;52.266;10.542;2022-08-02T09:13:58;100875.00;;;20.70
64960;BMP180;51487;52.266;10.542;2022-08-02T09:16:37;100872.00;;;20.80
64960;BMP180;51487;52.266;10.542;2022-08-02T09:19:19;100881.00;;;20.70
64960;BMP180;51487;52.266;10.542;2022-08-02T09:21:48;100873.00;;;20.70
64960;BMP180;51487;52.266;10.542;2022-08-02T09:24:19;100873.00;;;20.60
64960;BMP180;51487;52.266;10.542;2022-08-02T09:26:48;100869.00;;;20.60
64960;BMP180;51487;52.266;10.542;2022-08-02T09:29:16;100860.00;;;20.70
64960;BMP180;51487;52.266;10.542;2022-08-02T09:31:43;100861.00;;;20.80
64960;BMP180;51487;52.266;10.542;2022-08-02T09:34:10;100857.00;;;20.80
64960;BMP180;51487;52.266;10.542;2022-08-02T09:36:38;100858.00;;;20.90
64960;BMP180;51487;52.266;10.542;2022-08-02T09:39:10;100855.00;;;20.90
64960;BMP180;51487;52.266;10.542;2022-08-02T09:41:40;100854.00;;;21.00
64960;BMP180;51487;52.266;10.542;2022-08-02T09:44:09;100851.00;;;21.00
64960;BMP180;51487;52.266;10.542;2022-08-02T09:46:41;100855.00;;;21.00
64960;BMP180;51487;52.266;10.542;2022-08-02T09:49:15;100854.00;;;21.10
64960;BMP180;51487;52.266;10.542;2022-08-02T09:54:15;100850.00;;;21.30
64960;BMP180;51487;52.266;10.542;2022-08-02T09:56:51;100845.00;;;21.40
64960;BMP180;51487;52.266;10.542;2022-08-02T09:59:21;100839.00;;;21.50
64960;BMP180;51487;52.266;10.542;2022-08-02T10:01:51;100833.00;;;21.50
64960;BMP180;51487;52.266;10.542;2022-08-02T10:04:20;100837.00;;;21.60
64960;BMP180;51487;52.266;10.542;2022-08-02T10:06:48;100844.00;;;21.60
64960;BMP180;51487;52.266;10.542;2022-08-02T10:09:16;100830.00;;;21.70
64960;BMP180;51487;52.266;10.542;2022-08-02T10:11:42;100823.00;;;21.70
64960;BMP180;51487;52.266;10.542;2022-08-02T10:14:09;100844.00;;;21.80
64960;BMP180;51487;52.266;10.542;2022-08-02T10:16:38;100831.00;;;22.00
64960;BMP180;51487;52.266;10.542;2022-08-02T10:19:05;100827.00;;;22.00
64960;BMP180;51487;52.266;10.542;2022-08-02T10:21:44;100827.00;;;22.10
64960;BMP180;51487;52.266;10.542;2022-08-02T10:24:15;100837.00;;;22.20
64960;BMP180;51487;52.266;10.542;2022-08-02T10:26:52;100831.00;;;22.30
64960;BMP180;51487;52.266;10.542;2022-08-02T10:29:26;100828.00;;;22.40
64960;BMP180;51487;52.266;10.542;2022-08-02T10:32:09;100830.00;;;22.50
64960;BMP180;51487;52.266;10.542;2022-08-02T10:34:44;100826.00;;;22.50
64960;BMP180;51487;52.266;10.542;2022-08-02T10:37:13;100833.00;;;22.40
64960;BMP180;51487;52.266;10.542;2022-08-02T10:39:41;100833.00;;;22.40
64960;BMP180;51487;52.266;10.542;2022-08-02T10:42:08;100829.00;;;22.40
64960;BMP180;51487;52.266;10.542;2022-08-02T10:44:36;100836.00;;;22.30
64960;BMP180;51487;52.266;10.542;2022-08-02T10:47:17;100828.00;;;22.10
64960;BMP180;51487;52.266;10.542;2022-08-02T10:49:50;100828.00;;;22.30
64960;BMP180;51487;52.266;10.542;2022-08-02T10:52:40;100831.00;;;22.40
64960;BMP180;51487;52.266;10.542;2022-08-02T10:55:10;100833.00;;;22.50
64960;BMP180;51487;52.266;10.542;2022-08-02T10:57:38;100848.00;;;22.50
64960;BMP180;51487;52.266;10.542;2022-08-02T11:00:30;100830.00;;;22.50
64960;BMP180;51487;52.266;10.542;2022-08-02T11:02:56;100829.00;;;22.50
64960;BMP180;51487;52.266;10.542;2022-08-02T11:05:31;100824.00;;;22.60
64960;BMP180;51487;52.266;10.542;2022-08-02T11:08:19;100824.00;;;22.60
64960;BMP180;51487;52.266;10.542;2022-08-02T11:10:46;100835.00;;;22.70
64960;BMP180;51487;52.266;10.542;2022-08-02T11:13:15;100823.00;;;22.80
64960;BMP180;51487;52.266;10.542;2022-08-02T11:18:21;100819.00;;;22.90
64960;BMP180;51487;52.266;10.542;2022-08-02T11:23:49;100814.00;;;23.00
64960;BMP180;51487;52.266;10.542;2022-08-02T11:28:53;100822.00;;;23.10
64960;BMP180;51487;52.266;10.542;2022-08-02T11:31:20;100813.00;;;23.10
64960;BMP180;51487;52.266;10.542;2022-08-02T11:33:48;100809.00;;;23.00
64960;BMP180;51487;52.266;10.542;2022-08-02T11:36:15;100807.00;;;23.10
64960;BMP180;51487;52.266;10.542;2022-08-02T11:38:42;100814.00;;;23.20
64960;BMP180;51487;52.266;10.542;2022-08-02T11:41:08;100810.00;;;23.20
64960;BMP180;51487;52.266;10.542;2022-08-02T11:43:35;100813.00;;;23.20
64960;BMP180;51487;52.266;10.542;2022-08-02T11:46:11;100812.00;;;23.20
64960;BMP180;51487;52.266;10.542;2022-08-02T11:48:41;100814.00;;;23.50
64960;BMP180;51487;52.266;10.542;2022-08-02T11:53:48;100804.00;;;23.50
64960;BMP180;51487;52.266;10.542;2022-08-02T11:56:17;100821.00;;;23.70
64960;BMP180;51487;52.266;10.542;2022-08-02T12:01:30;100814.00;;;23.80
64960;BMP180;51487;52.266;10.542;2022-08-02T12:03:56;100807.00;;;23.90
64960;BMP180;51487;52.266;10.542;2022-08-02T12:06:28;100812.00;;;23.90
64960;BMP180;51487;52.266;10.542;2022-08-02T12:09:05;100807.00;;;24.00
64960;BMP180;51487;52.266;10.542;2022-08-02T12:11:33;100797.00;;;24.00
64960;BMP180;51487;52.266;10.542;2022-08-02T12:14:00;100794.00;;;24.00
64960;BMP180;51487;52.266;10.542;2022-08-02T12:16:35;100810.00;;;24.10
64960;BMP180;51487;52.266;10.542;2022-08-02T12:19:22;100799.00;;;24.20
64960;BMP180;51487;52.266;10.542;2022-08-02T12:22:17;100807.00;;;24.30
64960;BMP180;51487;52.266;10.542;2022-08-02T12:24:50;100788.00;;;24.40
64960;BMP180;51487;52.266;10.542;2022-08-02T12:32:32;100784.00;;;24.50
64960;BMP180;51487;52.266;10.542;2022-08-02T12:37:31;100789.00;;;24.60
64960;BMP180;51487;52.266;10.542;2022-08-02T12:39:58;100783.00;;;24.70
64960;BMP180;51487;52.266;10.542;2022-08-02T12:42:46;100776.00;;;24.70
64960;BMP180;51487;52.266;10.542;2022-08-02T12:45:16;100777.00;;;24.80
64960;BMP180;51487;52.266;10.542;2022-08-02T12:47:49;100773.00;;;24.70
64960;BMP180;51487;52.266;10.542;2022-08-02T12:52:47;100774.00;;;24.90
64960;BMP180;51487;52.266;10.542;2022-08-02T12:55:22;100776.00;;;25.00
64960;BMP180;51487;52.266;10.542;2022-08-02T12:57:57;100765.00;;;25.20
64960;BMP180;51487;52.266;10.542;2022-08-02T13:00:28;100763.00;;;25.20
64960;BMP180;51487;52.266;10.542;2022-08-02T13:02:56;100761.00;;;25.20
64960;BMP180;51487;52.266;10.542;2022-08-02T13:05:22;100753.00;;;25.10
64960;BMP180;51487;52.266;10.542;2022-08-02T13:07:49;100755.00;;;25.10
64960;BMP180;51487;52.266;10.542;2022-08-02T13:10:15;100747.00;;;25.10
64960;BMP180;51487;52.266;10.542;2022-08-02T13:12:41;100733.00;;;25.40
64960;BMP180;51487;52.266;10.542;2022-08-02T13:15:08;100735.00;;;25.50
64960;BMP180;51487;52.266;10.542;2022-08-02T13:17:34;100739.00;;;25.60
64960;BMP180;51487;52.266;10.542;2022-08-02T13:20:00;100737.00;;;25.60
64960;BMP180;51487;52.266;10.542;2022-08-02T13:22:26;100737.00;;;25.60
64960;BMP180;51487;52.266;10.542;2022-08-02T13:24:52;100738.00;;;25.50
64960;BMP180;51487;52.266;10.542;2022-08-02T13:27:17;100734.00;;;25.50
64960;BMP180;51487;52.266;10.542;2022-08-02T13:29:44;100739.00;;;25.60
64960;BMP180;51487;52.266;10.542;2022-08-02T13:32:09;100729.00;;;25.60
64960;BMP180;51487;52.266;10.542;2022-08-02T13:34:35;100725.00;;;25.70
64960;BMP180;51487;52.266;10.542;2022-08-02T13:37:01;100727.00;;;25.80
64960;BMP180;51487;52.266;10.542;2022-08-02T13:39:28;100727.00;;;25.90
64960;BMP180;51487;52.266;10.542;2022-08-02T13:41:53;100728.00;;;26.00
64960;BMP180;51487;52.266;10.542;2022-08-02T13:44:20;100729.00;;;26.00
64960;BMP180;51487;52.266;10.542;2022-08-02T13:46:46;100724.00;;;25.90
64960;BMP180;51487;52.266;10.542;2022-08-02T13:49:12;100716.00;;;25.80
64960;BMP180;51487;52.266;10.542;2022-08-02T13:51:38;100720.00;;;25.70
64960;BMP180;51487;52.266;10.542;2022-08-02T13:54:04;100720.00;;;25.50
64960;BMP180;51487;52.266;10.542;2022-08-02T13:56:29;100708.00;;;25.60
64960;BMP180;51487;52.266;10.542;2022-08-02T13:58:55;100705.00;;;25.60
64960;BMP180;51487;52.266;10.542;2022-08-02T14:01:24;100692.00;;;25.70
64960;BMP180;51487;52.266;10.542;2022-08-02T14:03:50;100693.00;;;25.80
64960;BMP180;51487;52.266;10.542;2022-08-02T14:06:16;100696.00;;;25.90
64960;BMP180;51487;52.266;10.542;2022-08-02T14:08:42;100701.00;;;26.10
64960;BMP180;51487;52.266;10.542;2022-08-02T14:11:07;100701.00;;;26.30
64960;BMP180;51487;52.266;10.542;2022-08-02T14:13:33;100705.00;;;26.30
64960;BMP180;51487;52.266;10.542;2022-08-02T14:15:59;100695.00;;;26.20
64960;BMP180;51487;52.266;10.542;2022-08-02T14:18:25;100701.00;;;26.20
64960;BMP180;51487;52.266;10.542;2022-08-02T14:20:50;100712.00;;;26.30
64960;BMP180;51487;52.266;10.542;2022-08-02T14:23:16;100712.00;;;26.30
64960;BMP180;51487;52.266;10.542;2022-08-02T14:25:41;100708.00;;;26.30
64960;BMP180;51487;52.266;10.542;2022-08-02T14:28:07;100714.00;;;26.30